createdAt,value
2022-10-17T00:01:08.945Z,101576.40
2022-10-17T00:03:38.693Z,101571.60
2022-10-17T00:06:11.486Z,101571.80
2022-10-17T00:08:41.921Z,101576.20
2022-10-17T00:11:27.692Z,101576.20
2022-10-17T00:13:57.043Z,101578.40
2022-10-17T00:16:32.770Z,101583.40
2022-10-17T00:19:00.899Z,101571.40
2022-10-17T00:21:28.936Z,101567.60
2022-10-17T00:23:56.720Z,101575.40
2022-10-17T00:26:24.563Z,101581.80
2022-10-17T00:28:53.468Z,101587.20
2022-10-17T00:31:24.705Z,101587.00
2022-10-17T00:33:53.314Z,101578.00
2022-10-17T00:36:24.800Z,101579.20
2022-10-17T00:38:59.247Z,101588.40
2022-10-17T00:41:33.331Z,101584.20
2022-10-17T00:44:25.555Z,101588.00
2022-10-17T00:46:53.855Z,101592.60
2022-10-17T00:49:24.719Z,101591.40
2022-10-17T00:51:57.602Z,101592.80
2022-10-17T00:54:39.296Z,101597.60
2022-10-17T00:57:07.546Z,101595.20
2022-10-17T00:59:38.441Z,101596.60
2022-10-17T01:02:13.671Z,101604.20
2022-10-17T01:04:48.982Z,101607.20
2022-10-17T01:07:17.847Z,101613.60
2022-10-17T01:09:47.549Z,101614.20
2022-10-17T01:13:06.109Z,101610.00
2022-10-17T01:16:08.733Z,101608.40
2022-10-17T01:19:07.420Z,101608.80
2022-10-17T01:22:09.835Z,101610.40
2022-10-17T01:24:58.670Z,101618.00
2022-10-17T01:27:35.638Z,101623.40
2022-10-17T01:30:25.174Z,101634.00
2022-10-17T01:33:11.583Z,101640.60
2022-10-17T01:35:51.130Z,101648.40
2022-10-17T01:38:27.441Z,101645.60
2022-10-17T01:41:23.426Z,101627.40
2022-10-17T01:44:00.708Z,101619.40
2022-10-17T01:46:38.394Z,101625.00
2022-10-17T01:49:10.886Z,101627.00
2022-10-17T01:51:53.121Z,101636.00
2022-10-17T01:54:28.881Z,101642.80
2022-10-17T01:57:01.695Z,101643.00
2022-10-17T01:59:38.321Z,101647.80
2022-10-17T02:02:08.051Z,101654.80
2022-10-17T02:04:36.451Z,101649.20
2022-10-17T02:07:13.565Z,101657.20
2022-10-17T02:09:41.341Z,101660.80
2022-10-17T02:12:21.491Z,101659.20
2022-10-17T02:15:13.572Z,101664.60
2022-10-17T02:18:18.667Z,101669.60
2022-10-17T02:21:15.129Z,101669.00
2022-10-17T02:24:06.420Z,101652.20
2022-10-17T02:26:44.945Z,101655.60
2022-10-17T02:29:25.810Z,101656.00
2022-10-17T02:32:07.054Z,101666.60
2022-10-17T02:34:42.896Z,101668.60
2022-10-17T02:37:17.249Z,101676.60
2022-10-17T02:39:46.379Z,101680.00
2022-10-17T02:42:16.273Z,101678.80
2022-10-17T02:44:46.651Z,101675.80
2022-10-17T02:47:36.801Z,101677.20
2022-10-17T02:50:05.860Z,101682.40
2022-10-17T02:52:52.800Z,101686.80
2022-10-17T02:55:29.739Z,101693.00
2022-10-17T02:58:06.860Z,101693.60
2022-10-17T03:00:35.471Z,101698.00
2022-10-17T03:03:25.024Z,101701.00
2022-10-17T03:05:53.699Z,101704.40
2022-10-17T03:08:22.910Z,101712.20
2022-10-17T03:10:51.662Z,101712.40
2022-10-17T03:13:19.667Z,101713.40
2022-10-17T03:15:47.831Z,101712.80
2022-10-17T03:18:15.557Z,101707.40
2022-10-17T03:20:43.271Z,101713.40
2022-10-17T03:23:11.054Z,101718.60
2022-10-17T03:25:38.926Z,101719.20
2022-10-17T03:28:06.764Z,101715.40
2022-10-17T03:30:34.459Z,101706.80
2022-10-17T03:33:02.193Z,101713.80
2022-10-17T03:35:29.916Z,101703.60
2022-10-17T03:37:58.280Z,101708.60
2022-10-17T03:40:25.964Z,101707.20
2022-10-17T03:42:53.725Z,101710.60
2022-10-17T03:45:21.454Z,101706.00
2022-10-17T03:47:49.252Z,101703.00
2022-10-17T03:50:17.273Z,101712.60
2022-10-17T03:52:49.285Z,101706.60
2022-10-17T03:55:17.437Z,101706.40
2022-10-17T03:57:45.694Z,101708.20
2022-10-17T04:00:14.221Z,101713.40
2022-10-17T04:02:42.427Z,101719.00
2022-10-17T04:05:10.118Z,101720.80
2022-10-17T04:07:38.267Z,101728.00
2022-10-17T04:10:06.815Z,101737.80
2022-10-17T04:12:34.530Z,101745.80
2022-10-17T04:15:02.279Z,101753.40
2022-10-17T04:17:37.225Z,101757.00
2022-10-17T04:20:07.076Z,101754.20
2022-10-17T04:22:34.902Z,101748.60
2022-10-17T04:25:02.662Z,101740.20
2022-10-17T04:27:30.412Z,101735.00
2022-10-17T04:29:58.214Z,101736.40
2022-10-17T04:32:26.475Z,101742.40
2022-10-17T04:34:54.389Z,101742.80
2022-10-17T04:37:22.249Z,101738.60
2022-10-17T04:39:49.923Z,101742.60
2022-10-17T04:42:17.657Z,101741.20
2022-10-17T04:44:45.418Z,101744.40
2022-10-17T04:47:13.061Z,101747.00
2022-10-17T04:52:09.478Z,101751.60
2022-10-17T04:54:37.190Z,101751.00
2022-10-17T04:57:04.895Z,101751.60
2022-10-17T04:59:32.786Z,101758.20
2022-10-17T05:02:00.497Z,101763.40
2022-10-17T05:04:28.303Z,101759.00
2022-10-17T05:06:55.982Z,101763.00
2022-10-17T05:09:23.862Z,101768.00
2022-10-17T05:11:51.675Z,101764.40
2022-10-17T05:14:19.455Z,101764.40
2022-10-17T05:16:47.169Z,101760.60
2022-10-17T05:19:14.954Z,101766.20
2022-10-17T05:21:42.672Z,101764.40
2022-10-17T05:24:16.604Z,101773.80
2022-10-17T05:26:44.374Z,101773.60
2022-10-17T05:29:12.071Z,101770.20
2022-10-17T05:31:39.845Z,101776.00
2022-10-17T05:34:10.232Z,101779.60
2022-10-17T05:36:41.163Z,101779.40
2022-10-17T05:39:09.053Z,101779.20
2022-10-17T05:41:36.784Z,101780.80
2022-10-17T05:44:05.697Z,101779.60
2022-10-17T05:46:33.709Z,101785.00
2022-10-17T05:49:01.445Z,101785.60
2022-10-17T05:51:29.360Z,101789.60
2022-10-17T05:53:57.184Z,101789.80
2022-10-17T05:56:24.922Z,101792.80
2022-10-17T05:58:56.243Z,101794.80
2022-10-17T06:01:26.704Z,101801.40
2022-10-17T06:03:54.446Z,101800.20
2022-10-17T06:06:23.600Z,101804.80
2022-10-17T06:08:51.413Z,101803.60
2022-10-17T06:11:19.170Z,101787.80
2022-10-17T06:13:46.854Z,101787.40
2022-10-17T06:16:14.613Z,101791.80
2022-10-17T06:18:42.411Z,101804.80
2022-10-17T06:21:12.536Z,101805.60
2022-10-17T06:23:40.436Z,101796.00
2022-10-17T06:26:08.667Z,101802.80
2022-10-17T06:28:37.364Z,101810.00
2022-10-17T06:31:13.806Z,101817.80
2022-10-17T06:33:42.180Z,101823.00
2022-10-17T06:36:13.556Z,101821.00
2022-10-17T06:38:41.901Z,101821.60
2022-10-17T06:41:19.054Z,101816.60
2022-10-17T06:43:47.754Z,101828.80
2022-10-17T06:46:18.544Z,101832.80
2022-10-17T06:48:46.281Z,101838.00
2022-10-17T06:51:14.077Z,101835.40
2022-10-17T06:53:41.830Z,101839.00
2022-10-17T06:56:10.963Z,101834.20
2022-10-17T06:58:40.883Z,101837.80
2022-10-17T07:01:12.641Z,101837.40
2022-10-17T07:03:41.424Z,101837.40
2022-10-17T07:06:13.593Z,101832.40
2022-10-17T07:08:45.890Z,101829.40
2022-10-17T07:11:18.601Z,101832.00
2022-10-17T07:13:47.337Z,101835.60
2022-10-17T07:16:17.027Z,101834.80
2022-10-17T07:18:49.237Z,101831.60
2022-10-17T07:21:17.731Z,101834.60
2022-10-17T07:23:45.549Z,101849.00
2022-10-17T07:26:17.578Z,101845.80
2022-10-17T07:28:47.822Z,101843.20
2022-10-17T07:31:19.666Z,101835.40
2022-10-17T07:33:48.079Z,101838.20
2022-10-17T07:36:17.191Z,101839.60
2022-10-17T07:38:45.033Z,101841.40
2022-10-17T07:41:17.796Z,101838.20
2022-10-17T07:43:49.326Z,101837.60
2022-10-17T07:46:17.079Z,101841.20
2022-10-17T07:48:44.811Z,101848.40
2022-10-17T07:51:12.556Z,101859.60
2022-10-17T07:53:42.793Z,101857.00
2022-10-17T07:56:13.299Z,101855.20
2022-10-17T07:58:41.289Z,101849.60
2022-10-17T08:01:15.668Z,101850.40
2022-10-17T08:03:46.098Z,101854.80
2022-10-17T08:06:14.277Z,101862.40
2022-10-17T08:08:42.810Z,101854.20
2022-10-17T08:11:14.532Z,101854.60
2022-10-17T08:13:43.405Z,101855.80
2022-10-17T08:16:13.395Z,101849.80
2022-10-17T08:18:43.152Z,101846.20
2022-10-17T08:21:13.531Z,101849.60
2022-10-17T08:23:41.599Z,101843.40
2022-10-17T08:26:13.564Z,101841.20
2022-10-17T08:28:41.734Z,101841.20
2022-10-17T08:31:13.772Z,101841.80
2022-10-17T08:33:42.931Z,101838.80
2022-10-17T08:36:14.941Z,101832.20
2022-10-17T08:38:43.820Z,101837.20
2022-10-17T08:41:56.836Z,101844.80
2022-10-17T08:44:57.896Z,101838.60
2022-10-17T08:47:38.427Z,101828.80
2022-10-17T08:50:28.551Z,101829.20
2022-10-17T08:53:06.114Z,101823.80
2022-10-17T08:55:42.986Z,101822.60
2022-10-17T08:58:20.210Z,101829.00
2022-10-17T09:01:30.805Z,101828.60
2022-10-17T09:04:16.426Z,101830.00
2022-10-17T09:07:00.220Z,101832.60
2022-10-17T09:09:54.568Z,101830.80
2022-10-17T09:13:30.793Z,101828.40
2022-10-17T09:16:33.046Z,101833.60
2022-10-17T09:19:15.836Z,101822.20
2022-10-17T09:21:53.857Z,101829.00
2022-10-17T09:24:43.284Z,101824.20
2022-10-17T09:27:35.664Z,101822.20
2022-10-17T09:30:43.674Z,101826.20
2022-10-17T09:33:34.689Z,101823.20
2022-10-17T09:36:11.947Z,101818.20
2022-10-17T09:38:48.598Z,101813.80
2022-10-17T09:44:30.432Z,101810.60
2022-10-17T09:47:30.283Z,101808.20
2022-10-17T09:49:58.161Z,101803.20
2022-10-17T09:52:42.342Z,101813.80
2022-10-17T09:55:32.863Z,101822.00
2022-10-17T09:58:07.036Z,101829.00
2022-10-17T10:00:47.723Z,101826.20
2022-10-17T10:03:27.793Z,101826.60
2022-10-17T10:06:06.550Z,101825.20
2022-10-17T10:08:48.979Z,101824.80
2022-10-17T10:11:18.235Z,101810.00
2022-10-17T10:13:49.755Z,101816.80
2022-10-17T10:16:33.327Z,101822.80
2022-10-17T10:19:03.698Z,101823.40
2022-10-17T10:21:37.120Z,101817.60
2022-10-17T10:24:15.069Z,101817.20
2022-10-17T10:26:47.388Z,101811.40
2022-10-17T10:29:34.991Z,101817.20
2022-10-17T10:32:23.320Z,101809.20
2022-10-17T10:35:04.014Z,101809.60
2022-10-17T10:37:50.079Z,101807.20
2022-10-17T10:40:25.355Z,101806.60
2022-10-17T10:43:01.300Z,101808.60
2022-10-17T10:45:47.679Z,101806.80
2022-10-17T10:48:24.265Z,101802.40
2022-10-17T10:51:18.057Z,101807.40
2022-10-17T10:54:25.403Z,101799.60
2022-10-17T10:56:58.086Z,101792.80
2022-10-17T10:59:47.967Z,101797.80
2022-10-17T11:02:40.509Z,101787.40
2022-10-17T11:05:40.149Z,101780.60
2022-10-17T11:08:38.225Z,101775.40
2022-10-17T11:11:24.039Z,101775.80
2022-10-17T11:14:03.851Z,101778.60
2022-10-17T11:16:42.197Z,101778.60
2022-10-17T11:20:23.251Z,101775.20
2022-10-17T11:23:36.424Z,101766.40
2022-10-17T11:26:14.293Z,101754.20
2022-10-17T11:28:43.402Z,101754.60
2022-10-17T11:31:15.026Z,101739.60
2022-10-17T11:34:07.402Z,101743.60
2022-10-17T11:36:42.124Z,101746.80
2022-10-17T11:42:26.062Z,101737.60
2022-10-17T11:45:16.081Z,101727.20
2022-10-17T11:48:12.794Z,101727.60
2022-10-17T11:53:56.407Z,101728.20
2022-10-17T11:56:54.263Z,101721.00
2022-10-17T11:59:30.929Z,101726.20
2022-10-17T12:02:10.008Z,101716.40
2022-10-17T12:05:02.507Z,101712.00
2022-10-17T12:07:46.696Z,101716.40
2022-10-17T12:10:25.501Z,101710.60
2022-10-17T12:12:53.463Z,101722.40
2022-10-17T12:15:23.511Z,101723.40
2022-10-17T12:18:02.826Z,101726.40
2022-10-17T12:20:34.910Z,101720.60
2022-10-17T12:23:32.811Z,101718.60
2022-10-17T12:26:05.433Z,101720.60
2022-10-17T12:28:44.605Z,101715.40
2022-10-17T12:31:28.541Z,101709.00
2022-10-17T12:34:05.198Z,101704.00
2022-10-17T12:36:33.297Z,101700.80
2022-10-17T12:39:04.120Z,101696.20
2022-10-17T12:41:38.111Z,101692.00
2022-10-17T12:44:15.299Z,101688.20
2022-10-17T12:47:10.927Z,101675.60
2022-10-17T12:49:55.795Z,101663.80
2022-10-17T12:52:31.806Z,101658.20
2022-10-17T12:55:13.190Z,101653.60
2022-10-17T12:57:53.801Z,101646.80
2022-10-17T13:01:11.677Z,101645.80
2022-10-17T13:03:46.944Z,101646.40
2022-10-17T13:06:31.205Z,101641.60
2022-10-17T13:09:09.113Z,101635.20
2022-10-17T13:11:39.791Z,101625.40
2022-10-17T13:14:14.705Z,101627.60
2022-10-17T13:16:58.573Z,101633.20
2022-10-17T13:19:32.802Z,101632.20
2022-10-17T13:22:06.816Z,101630.40
2022-10-17T13:24:41.510Z,101619.40
2022-10-17T13:27:31.052Z,101620.60
2022-10-17T13:30:02.183Z,101618.80
2022-10-17T13:32:39.897Z,101625.20
2022-10-17T13:35:17.429Z,101620.40
2022-10-17T13:37:51.605Z,101620.00
2022-10-17T13:40:49.537Z,101615.20
2022-10-17T13:43:21.181Z,101613.20
2022-10-17T13:45:58.091Z,101600.60
2022-10-17T13:48:32.084Z,101589.20
2022-10-17T13:51:07.858Z,101581.60
2022-10-17T13:53:42.639Z,101583.20
2022-10-17T13:56:29.906Z,101579.40
2022-10-17T13:59:06.865Z,101572.60
2022-10-17T14:01:35.188Z,101564.20
2022-10-17T14:04:09.231Z,101559.20
2022-10-17T14:06:49.535Z,101559.40
2022-10-17T14:09:28.169Z,101551.80
2022-10-17T14:12:12.993Z,101552.20
2022-10-17T14:15:09.296Z,101554.60
2022-10-17T14:17:38.833Z,101560.80
2022-10-17T14:20:57.134Z,101557.60
2022-10-17T14:25:48.966Z,101562.80
2022-10-17T14:28:18.683Z,101557.60
2022-10-17T14:30:56.724Z,101553.60
2022-10-17T14:33:31.636Z,101551.00
2022-10-17T14:36:02.640Z,101547.80
2022-10-17T14:38:30.946Z,101552.20
2022-10-17T14:41:43.848Z,101546.20
2022-10-17T14:44:23.337Z,101552.00
2022-10-17T14:47:18.167Z,101547.00
2022-10-17T14:50:04.636Z,101546.20
2022-10-17T14:52:34.923Z,101547.40
2022-10-17T14:55:24.789Z,101547.00
2022-10-17T14:57:52.663Z,101541.60
2022-10-17T15:00:23.301Z,101541.60
2022-10-17T15:02:54.831Z,101540.40
2022-10-17T15:05:25.879Z,101535.20
2022-10-17T15:07:53.862Z,101534.00
2022-10-17T15:10:36.955Z,101528.20
2022-10-17T15:13:26.536Z,101530.00
2022-10-17T15:15:52.776Z,101527.40
2022-10-17T15:18:21.095Z,101524.00
2022-10-17T15:20:55.299Z,101523.00
2022-10-17T15:23:32.585Z,101517.40
2022-10-17T15:26:01.972Z,101524.20
2022-10-17T15:28:29.982Z,101519.60
2022-10-17T15:30:58.005Z,101520.80
2022-10-17T15:33:25.776Z,101520.00
2022-10-17T15:35:53.805Z,101517.60
2022-10-17T15:38:21.836Z,101522.00
2022-10-17T15:40:52.147Z,101522.60
2022-10-17T15:43:22.986Z,101523.40
2022-10-17T15:45:51.073Z,101514.60
2022-10-17T15:48:29.695Z,101521.40
2022-10-17T15:50:58.167Z,101520.80
2022-10-17T15:53:25.949Z,101522.20
2022-10-17T15:55:53.896Z,101522.80
2022-10-17T15:58:21.754Z,101529.60
2022-10-17T16:00:49.584Z,101530.00
2022-10-17T16:03:17.374Z,101527.80
2022-10-17T16:05:45.208Z,101530.40
2022-10-17T16:08:12.998Z,101526.40
2022-10-17T16:10:41.374Z,101521.40
2022-10-17T16:13:20.764Z,101521.60
2022-10-17T16:15:50.771Z,101516.20
2022-10-17T16:18:21.342Z,101509.20
2022-10-17T16:20:49.740Z,101510.00
2022-10-17T16:23:17.495Z,101509.20
2022-10-17T16:25:46.261Z,101506.20
2022-10-17T16:28:14.258Z,101502.20
2022-10-17T16:30:46.666Z,101504.00
2022-10-17T16:33:15.675Z,101498.80
2022-10-17T16:35:45.762Z,101499.00
2022-10-17T16:38:13.700Z,101497.00
2022-10-17T16:40:41.746Z,101496.00
2022-10-17T16:43:13.898Z,101495.00
2022-10-17T16:45:41.869Z,101494.20
2022-10-17T16:48:15.371Z,101492.20
2022-10-17T16:50:43.105Z,101492.60
2022-10-17T16:53:10.953Z,101487.60
2022-10-17T16:55:38.705Z,101487.20
2022-10-17T16:58:06.747Z,101484.40
2022-10-17T17:00:34.857Z,101479.60
2022-10-17T17:03:02.670Z,101482.60
2022-10-17T17:05:30.431Z,101476.60
2022-10-17T17:07:59.579Z,101477.20
2022-10-17T17:10:27.323Z,101476.40
2022-10-17T17:12:55.918Z,101467.20
2022-10-17T17:15:23.752Z,101470.80
2022-10-17T17:17:54.972Z,101463.80
2022-10-17T17:20:23.516Z,101454.00
2022-10-17T17:22:52.576Z,101453.40
2022-10-17T17:25:22.640Z,101452.80
2022-10-17T17:27:50.575Z,101455.00
2022-10-17T17:30:18.629Z,101454.80
2022-10-17T17:32:46.823Z,101448.00
2022-10-17T17:35:14.886Z,101453.00
2022-10-17T17:37:42.718Z,101453.60
2022-10-17T17:40:11.612Z,101446.80
2022-10-17T17:42:39.558Z,101440.20
2022-10-17T17:45:08.189Z,101439.00
2022-10-17T17:47:36.538Z,101437.20
2022-10-17T17:50:04.980Z,101430.20
2022-10-17T17:52:33.033Z,101432.80
2022-10-17T17:55:01.043Z,101426.80
2022-10-17T17:57:30.326Z,101429.60
2022-10-17T17:59:58.062Z,101424.20
2022-10-17T18:02:25.923Z,101419.00
2022-10-17T18:04:53.690Z,101418.60
2022-10-17T18:07:21.400Z,101418.80
2022-10-17T18:09:51.071Z,101416.80
2022-10-17T18:12:18.981Z,101413.80
2022-10-17T18:14:48.343Z,101404.40
2022-10-17T18:17:16.084Z,101407.20
2022-10-17T18:19:43.863Z,101404.00
2022-10-17T18:22:11.762Z,101401.60
2022-10-17T18:24:39.480Z,101400.20
2022-10-17T18:27:07.606Z,101393.60
2022-10-17T18:29:35.900Z,101397.40
2022-10-17T18:32:04.889Z,101393.20
2022-10-17T18:34:32.732Z,101388.20
2022-10-17T18:37:02.831Z,101387.80
2022-10-17T18:39:30.902Z,101385.60
2022-10-17T18:41:58.916Z,101387.00
2022-10-17T18:44:27.218Z,101394.40
2022-10-17T18:46:58.566Z,101393.20
2022-10-17T18:49:29.554Z,101387.40
2022-10-17T18:52:00.632Z,101379.20
2022-10-17T18:54:29.664Z,101385.60
2022-10-17T18:56:57.669Z,101379.20
2022-10-17T18:59:25.522Z,101376.20
2022-10-17T19:01:53.414Z,101379.00
2022-10-17T19:04:21.790Z,101374.40
2022-10-17T19:06:49.884Z,101376.40
2022-10-17T19:09:20.065Z,101376.60
2022-10-17T19:11:47.829Z,101373.40
2022-10-17T19:14:15.679Z,101378.40
2022-10-17T19:16:49.603Z,101374.40
2022-10-17T19:19:23.589Z,101373.40
2022-10-17T19:21:52.806Z,101368.60
2022-10-17T19:24:25.156Z,101370.60
2022-10-17T19:26:58.273Z,101368.60
2022-10-17T19:29:31.323Z,101368.40
2022-10-17T19:32:01.206Z,101368.60
2022-10-17T19:34:29.621Z,101363.00
2022-10-17T19:36:58.257Z,101358.80
2022-10-17T19:39:26.815Z,101353.80
2022-10-17T19:41:54.709Z,101352.80
2022-10-17T19:44:22.667Z,101347.60
2022-10-17T19:46:50.443Z,101342.00
2022-10-17T19:49:18.562Z,101346.60
2022-10-17T19:51:46.902Z,101345.00
2022-10-17T19:54:18.404Z,101346.40
2022-10-17T19:56:49.663Z,101349.60
2022-10-17T19:59:19.002Z,101356.80
2022-10-17T20:01:47.855Z,101348.00
2022-10-17T20:04:17.166Z,101351.80
2022-10-17T20:06:47.323Z,101351.00
2022-10-17T20:09:17.089Z,101348.20
2022-10-17T20:11:45.501Z,101353.80
2022-10-17T20:14:13.571Z,101354.60
2022-10-17T20:16:41.981Z,101346.60
2022-10-17T20:19:13.079Z,101350.00
2022-10-17T20:21:40.887Z,101358.20
2022-10-17T20:24:16.592Z,101354.80
2022-10-17T20:26:46.045Z,101353.00
2022-10-17T20:29:21.376Z,101350.40
2022-10-17T20:31:49.772Z,101351.20
2022-10-17T20:34:19.779Z,101360.80
2022-10-17T20:36:48.814Z,101365.00
2022-10-17T20:39:19.223Z,101366.80
2022-10-17T20:41:47.562Z,101363.60
2022-10-17T20:44:15.822Z,101365.00
2022-10-17T20:46:52.929Z,101369.60
2022-10-17T20:49:29.176Z,101371.20
2022-10-17T20:51:57.763Z,101362.40
2022-10-17T20:54:29.609Z,101364.40
2022-10-17T20:56:59.853Z,101363.60
2022-10-17T20:59:31.095Z,101363.20
2022-10-17T21:01:58.842Z,101360.40
2022-10-17T21:04:45.234Z,101355.20
2022-10-17T21:07:14.992Z,101358.60
2022-10-17T21:09:42.668Z,101357.40
2022-10-17T21:12:18.172Z,101356.00
2022-10-17T21:14:53.954Z,101361.40
2022-10-17T21:17:21.811Z,101361.20
2022-10-17T21:19:49.934Z,101356.40
2022-10-17T21:22:17.837Z,101358.80
2022-10-17T21:24:45.670Z,101357.80
2022-10-17T21:27:17.169Z,101357.40
2022-10-17T21:29:45.221Z,101362.20
2022-10-17T21:32:25.141Z,101354.60
2022-10-17T21:35:00.656Z,101355.60
2022-10-17T21:37:28.589Z,101355.80
2022-10-17T21:39:56.277Z,101359.00
2022-10-17T21:42:24.014Z,101359.20
2022-10-17T21:44:51.735Z,101357.80
2022-10-17T21:47:20.249Z,101358.60
2022-10-17T21:49:49.952Z,101364.60
2022-10-17T21:52:17.679Z,101369.40
2022-10-17T21:54:45.370Z,101373.20
2022-10-17T21:57:13.153Z,101371.60
2022-10-17T21:59:40.873Z,101372.20
2022-10-17T22:02:08.650Z,101369.80
2022-10-17T22:04:36.442Z,101370.60
2022-10-17T22:07:04.187Z,101371.20
2022-10-17T22:09:31.866Z,101364.60
2022-10-17T22:11:59.622Z,101368.20
2022-10-17T22:14:28.344Z,101364.80
2022-10-17T22:16:56.331Z,101372.00
2022-10-17T22:19:26.818Z,101369.60
2022-10-17T22:21:55.565Z,101372.60
2022-10-17T22:24:23.732Z,101374.60
2022-10-17T22:26:52.180Z,101370.00
2022-10-17T22:29:21.013Z,101368.60
2022-10-17T22:31:49.066Z,101375.60
2022-10-17T22:34:18.673Z,101374.20
2022-10-17T22:36:47.913Z,101376.60
2022-10-17T22:39:15.683Z,101377.40
2022-10-17T22:41:43.382Z,101371.60
2022-10-17T22:44:11.098Z,101368.20
2022-10-17T22:46:38.825Z,101367.00
2022-10-17T22:49:06.524Z,101365.80
2022-10-17T22:51:34.433Z,101368.80
2022-10-17T22:54:02.486Z,101369.80
2022-10-17T22:56:30.281Z,101363.60
2022-10-17T22:58:58.207Z,101375.00
2022-10-17T23:01:26.526Z,101378.40
2022-10-17T23:03:54.353Z,101370.20
2022-10-17T23:06:23.912Z,101372.80
2022-10-17T23:08:52.560Z,101374.40
2022-10-17T23:11:21.154Z,101377.40
2022-10-17T23:13:51.338Z,101379.60
2022-10-17T23:16:19.025Z,101384.40
2022-10-17T23:18:46.862Z,101389.00
2022-10-17T23:21:14.656Z,101382.20
2022-10-17T23:23:42.514Z,101386.80
2022-10-17T23:26:13.568Z,101393.20
2022-10-17T23:28:42.849Z,101390.60
2022-10-17T23:31:13.585Z,101397.20
2022-10-17T23:33:42.779Z,101391.60
2022-10-17T23:36:14.048Z,101391.80
2022-10-17T23:38:44.184Z,101391.00
2022-10-17T23:41:12.754Z,101397.60
2022-10-17T23:43:41.529Z,101394.40
2022-10-17T23:46:09.732Z,101390.40
2022-10-17T23:48:38.898Z,101389.40
2022-10-17T23:51:08.900Z,101385.20
2022-10-17T23:53:38.308Z,101379.00
2022-10-17T23:56:08.242Z,101387.60
2022-10-17T23:58:36.509Z,101391.60
